sensor_id;sensor_type;location;lat;lon;timestamp;P1;durP1;ratioP1;P2;durP2;ratioP2
68256;SDS011;55069;51.568;4.656;2022-10-16T00:00:39;4.63;;;3.10;;
68256;SDS011;55069;51.568;4.656;2022-10-16T00:03:06;5.90;;;3.15;;
68256;SDS011;55069;51.568;4.656;2022-10-16T00:05:33;7.60;;;3.03;;
68256;SDS011;55069;51.568;4.656;2022-10-16T00:08:02;6.75;;;2.90;;
68256;SDS011;55069;51.568;4.656;2022-10-16T00:10:28;8.60;;;3.00;;
68256;SDS011;55069;51.568;4.656;2022-10-16T00:12:54;7.15;;;3.30;;
68256;SDS011;55069;51.568;4.656;2022-10-16T00:15:19;5.63;;;2.85;;
68256;SDS011;55069;51.568;4.656;2022-10-16T00:17:45;5.47;;;3.00;;
68256;SDS011;55069;51.568;4.656;2022-10-16T00:20:10;8.70;;;2.93;;
68256;SDS011;55069;51.568;4.656;2022-10-16T00:22:36;13.10;;;2.90;;
68256;SDS011;55069;51.568;4.656;2022-10-16T00:25:01;8.53;;;3.03;;
68256;SDS011;55069;51.568;4.656;2022-10-16T00:27:27;6.45;;;2.90;;
68256;SDS011;55069;51.568;4.656;2022-10-16T00:29:52;6.72;;;2.70;;
68256;SDS011;55069;51.568;4.656;2022-10-16T00:32:18;6.23;;;2.80;;
68256;SDS011;55069;51.568;4.656;2022-10-16T00:34:45;6.88;;;2.70;;
68256;SDS011;55069;51.568;4.656;2022-10-16T00:37:11;7.57;;;3.72;;
68256;SDS011;55069;51.568;4.656;2022-10-16T00:39:37;5.90;;;2.53;;
68256;SDS011;55069;51.568;4.656;2022-10-16T00:42:03;11.73;;;2.90;;
68256;SDS011;55069;51.568;4.656;2022-10-16T00:44:43;6.65;;;2.47;;
68256;SDS011;55069;51.568;4.656;2022-10-16T00:47:15;6.47;;;2.65;;
68256;SDS011;55069;51.568;4.656;2022-10-16T00:49:46;6.55;;;2.25;;
68256;SDS011;55069;51.568;4.656;2022-10-16T00:52:14;6.10;;;2.27;;
68256;SDS011;55069;51.568;4.656;2022-10-16T00:54:40;6.43;;;2.28;;
68256;SDS011;55069;51.568;4.656;2022-10-16T00:57:06;4.60;;;2.30;;
68256;SDS011;55069;51.568;4.656;2022-10-16T00:59:37;4.50;;;2.10;;
68256;SDS011;55069;51.568;4.656;2022-10-16T01:02:05;5.95;;;2.00;;
68256;SDS011;55069;51.568;4.656;2022-10-16T01:04:34;3.67;;;1.98;;
68256;SDS011;55069;51.568;4.656;2022-10-16T01:13:05;3.75;;;1.90;;
68256;SDS011;55069;51.568;4.656;2022-10-16T01:15:44;6.43;;;2.33;;
68256;SDS011;55069;51.568;4.656;2022-10-16T01:20:45;6.40;;;1.93;;
68256;SDS011;55069;51.568;4.656;2022-10-16T01:23:36;3.25;;;1.77;;
68256;SDS011;55069;51.568;4.656;2022-10-16T01:31:35;3.92;;;1.75;;
68256;SDS011;55069;51.568;4.656;2022-10-16T01:37:02;2.88;;;1.77;;
68256;SDS011;55069;51.568;4.656;2022-10-16T01:39:33;3.90;;;1.83;;
68256;SDS011;55069;51.568;4.656;2022-10-16T01:42:13;6.38;;;2.00;;
68256;SDS011;55069;51.568;4.656;2022-10-16T01:44:42;2.75;;;1.80;;
68256;SDS011;55069;51.568;4.656;2022-10-16T01:47:10;5.13;;;2.00;;
68256;SDS011;55069;51.568;4.656;2022-10-16T01:49:37;6.90;;;1.50;;
68256;SDS011;55069;51.568;4.656;2022-10-16T01:52:05;2.90;;;1.60;;
68256;SDS011;55069;51.568;4.656;2022-10-16T01:54:33;5.25;;;1.80;;
68256;SDS011;55069;51.568;4.656;2022-10-16T01:57:01;3.58;;;1.73;;
68256;SDS011;55069;51.568;4.656;2022-10-16T01:59:31;6.40;;;1.90;;
68256;SDS011;55069;51.568;4.656;2022-10-16T02:02:03;2.15;;;1.48;;
68256;SDS011;55069;51.568;4.656;2022-10-16T02:04:34;2.97;;;1.70;;
68256;SDS011;55069;51.568;4.656;2022-10-16T02:07:03;3.30;;;1.70;;
68256;SDS011;55069;51.568;4.656;2022-10-16T02:09:29;3.08;;;1.40;;
68256;SDS011;55069;51.568;4.656;2022-10-16T02:11:58;3.10;;;1.50;;
68256;SDS011;55069;51.568;4.656;2022-10-16T02:14:28;2.90;;;1.50;;
68256;SDS011;55069;51.568;4.656;2022-10-16T02:16:54;3.00;;;1.70;;
68256;SDS011;55069;51.568;4.656;2022-10-16T02:19:19;5.00;;;1.77;;
68256;SDS011;55069;51.568;4.656;2022-10-16T02:30:30;4.67;;;1.50;;
68256;SDS011;55069;51.568;4.656;2022-10-16T02:33:01;3.63;;;1.40;;
68256;SDS011;55069;51.568;4.656;2022-10-16T02:35:30;5.30;;;1.73;;
68256;SDS011;55069;51.568;4.656;2022-10-16T02:37:56;10.60;;;2.03;;
68256;SDS011;55069;51.568;4.656;2022-10-16T02:40:22;4.32;;;1.45;;
68256;SDS011;55069;51.568;4.656;2022-10-16T02:42:50;3.80;;;1.40;;
68256;SDS011;55069;51.568;4.656;2022-10-16T02:45:17;2.67;;;1.17;;
68256;SDS011;55069;51.568;4.656;2022-10-16T02:47:43;2.92;;;1.55;;
68256;SDS011;55069;51.568;4.656;2022-10-16T02:50:09;4.27;;;1.30;;
68256;SDS011;55069;51.568;4.656;2022-10-16T02:52:35;1.95;;;1.15;;
68256;SDS011;55069;51.568;4.656;2022-10-16T02:55:00;8.67;;;1.40;;
68256;SDS011;55069;51.568;4.656;2022-10-16T02:57:26;2.40;;;1.10;;
68256;SDS011;55069;51.568;4.656;2022-10-16T02:59:52;3.60;;;1.23;;
68256;SDS011;55069;51.568;4.656;2022-10-16T03:02:18;2.80;;;1.25;;
68256;SDS011;55069;51.568;4.656;2022-10-16T03:04:43;2.37;;;1.33;;
68256;SDS011;55069;51.568;4.656;2022-10-16T03:07:09;3.33;;;1.00;;
68256;SDS011;55069;51.568;4.656;2022-10-16T03:09:34;5.72;;;1.25;;
68256;SDS011;55069;51.568;4.656;2022-10-16T03:12:00;1.80;;;1.20;;
68256;SDS011;55069;51.568;4.656;2022-10-16T03:14:25;3.78;;;1.30;;
68256;SDS011;55069;51.568;4.656;2022-10-16T03:16:51;6.07;;;1.77;;
68256;SDS011;55069;51.568;4.656;2022-10-16T03:19:17;5.43;;;1.55;;
68256;SDS011;55069;51.568;4.656;2022-10-16T03:21:43;4.68;;;1.40;;
68256;SDS011;55069;51.568;4.656;2022-10-16T03:24:09;4.53;;;1.30;;
68256;SDS011;55069;51.568;4.656;2022-10-16T03:26:35;11.20;;;1.67;;
68256;SDS011;55069;51.568;4.656;2022-10-16T03:29:01;3.45;;;1.45;;
68256;SDS011;55069;51.568;4.656;2022-10-16T03:31:28;3.30;;;1.42;;
68256;SDS011;55069;51.568;4.656;2022-10-16T03:33:54;3.55;;;1.52;;
68256;SDS011;55069;51.568;4.656;2022-10-16T03:36:20;2.37;;;1.10;;
68256;SDS011;55069;51.568;4.656;2022-10-16T03:38:45;2.97;;;1.20;;
68256;SDS011;55069;51.568;4.656;2022-10-16T03:41:11;4.30;;;1.30;;
68256;SDS011;55069;51.568;4.656;2022-10-16T03:43:36;2.53;;;1.53;;
68256;SDS011;55069;51.568;4.656;2022-10-16T03:46:02;3.03;;;1.27;;
68256;SDS011;55069;51.568;4.656;2022-10-16T03:48:28;4.93;;;1.70;;
68256;SDS011;55069;51.568;4.656;2022-10-16T03:50:54;6.17;;;1.57;;
68256;SDS011;55069;51.568;4.656;2022-10-16T03:53:19;6.13;;;1.65;;
68256;SDS011;55069;51.568;4.656;2022-10-16T03:55:45;2.05;;;1.20;;
68256;SDS011;55069;51.568;4.656;2022-10-16T03:58:11;2.05;;;1.30;;
68256;SDS011;55069;51.568;4.656;2022-10-16T04:00:43;3.53;;;1.33;;
68256;SDS011;55069;51.568;4.656;2022-10-16T04:03:10;7.90;;;1.20;;
68256;SDS011;55069;51.568;4.656;2022-10-16T04:05:36;3.80;;;1.30;;
68256;SDS011;55069;51.568;4.656;2022-10-16T04:08:02;6.27;;;1.57;;
68256;SDS011;55069;51.568;4.656;2022-10-16T04:10:28;6.68;;;1.70;;
68256;SDS011;55069;51.568;4.656;2022-10-16T04:12:53;4.30;;;1.40;;
68256;SDS011;55069;51.568;4.656;2022-10-16T04:15:21;4.95;;;1.50;;
68256;SDS011;55069;51.568;4.656;2022-10-16T04:17:50;4.53;;;1.52;;
68256;SDS011;55069;51.568;4.656;2022-10-16T04:20:16;3.92;;;1.40;;
68256;SDS011;55069;51.568;4.656;2022-10-16T04:22:42;3.42;;;1.40;;
68256;SDS011;55069;51.568;4.656;2022-10-16T04:25:08;5.47;;;1.63;;
68256;SDS011;55069;51.568;4.656;2022-10-16T04:27:34;3.58;;;1.50;;
68256;SDS011;55069;51.568;4.656;2022-10-16T04:30:00;5.90;;;1.67;;
68256;SDS011;55069;51.568;4.656;2022-10-16T04:32:26;3.58;;;1.50;;
68256;SDS011;55069;51.568;4.656;2022-10-16T04:34:52;2.70;;;1.63;;
68256;SDS011;55069;51.568;4.656;2022-10-16T04:37:18;5.07;;;1.57;;
68256;SDS011;55069;51.568;4.656;2022-10-16T04:39:43;3.90;;;1.65;;
68256;SDS011;55069;51.568;4.656;2022-10-16T04:42:10;2.40;;;1.60;;
68256;SDS011;55069;51.568;4.656;2022-10-16T04:44:36;1.97;;;1.30;;
68256;SDS011;55069;51.568;4.656;2022-10-16T04:47:01;4.28;;;1.52;;
68256;SDS011;55069;51.568;4.656;2022-10-16T04:49:27;2.67;;;1.67;;
68256;SDS011;55069;51.568;4.656;2022-10-16T04:51:52;3.50;;;1.75;;
68256;SDS011;55069;51.568;4.656;2022-10-16T04:54:18;2.25;;;1.50;;
68256;SDS011;55069;51.568;4.656;2022-10-16T04:56:43;4.10;;;1.80;;
68256;SDS011;55069;51.568;4.656;2022-10-16T04:59:15;3.78;;;1.88;;
68256;SDS011;55069;51.568;4.656;2022-10-16T05:01:41;4.85;;;1.45;;
68256;SDS011;55069;51.568;4.656;2022-10-16T05:04:07;5.17;;;2.40;;
68256;SDS011;55069;51.568;4.656;2022-10-16T05:06:32;5.38;;;2.30;;
68256;SDS011;55069;51.568;4.656;2022-10-16T05:08:58;4.17;;;1.73;;
68256;SDS011;55069;51.568;4.656;2022-10-16T05:11:23;4.50;;;2.00;;
68256;SDS011;55069;51.568;4.656;2022-10-16T05:13:49;4.90;;;2.30;;
68256;SDS011;55069;51.568;4.656;2022-10-16T05:16:14;8.60;;;2.07;;
68256;SDS011;55069;51.568;4.656;2022-10-16T05:18:40;3.77;;;1.53;;
68256;SDS011;55069;51.568;4.656;2022-10-16T05:21:05;7.30;;;2.60;;
68256;SDS011;55069;51.568;4.656;2022-10-16T05:23:31;6.45;;;2.28;;
68256;SDS011;55069;51.568;4.656;2022-10-16T05:25:57;5.83;;;2.10;;
68256;SDS011;55069;51.568;4.656;2022-10-16T05:28:28;3.28;;;1.77;;
68256;SDS011;55069;51.568;4.656;2022-10-16T05:30:55;4.28;;;1.80;;
68256;SDS011;55069;51.568;4.656;2022-10-16T05:33:22;3.63;;;1.70;;
68256;SDS011;55069;51.568;4.656;2022-10-16T05:35:49;6.50;;;2.20;;
68256;SDS011;55069;51.568;4.656;2022-10-16T05:38:16;7.85;;;2.03;;
68256;SDS011;55069;51.568;4.656;2022-10-16T05:40:41;3.08;;;2.10;;
68256;SDS011;55069;51.568;4.656;2022-10-16T05:43:07;7.07;;;1.58;;
68256;SDS011;55069;51.568;4.656;2022-10-16T05:45:33;7.90;;;1.90;;
68256;SDS011;55069;51.568;4.656;2022-10-16T05:47:59;9.13;;;2.05;;
68256;SDS011;55069;51.568;4.656;2022-10-16T05:50:25;7.10;;;2.10;;
68256;SDS011;55069;51.568;4.656;2022-10-16T05:52:50;6.15;;;1.90;;
68256;SDS011;55069;51.568;4.656;2022-10-16T05:55:16;7.73;;;1.80;;
68256;SDS011;55069;51.568;4.656;2022-10-16T05:57:41;6.07;;;1.90;;
68256;SDS011;55069;51.568;4.656;2022-10-16T06:00:07;6.70;;;2.08;;
68256;SDS011;55069;51.568;4.656;2022-10-16T06:02:37;8.73;;;2.40;;
68256;SDS011;55069;51.568;4.656;2022-10-16T06:05:03;8.35;;;2.50;;
68256;SDS011;55069;51.568;4.656;2022-10-16T06:07:33;4.10;;;1.63;;
68256;SDS011;55069;51.568;4.656;2022-10-16T06:10:00;9.23;;;2.08;;
68256;SDS011;55069;51.568;4.656;2022-10-16T06:12:26;7.20;;;1.67;;
68256;SDS011;55069;51.568;4.656;2022-10-16T06:14:52;7.82;;;2.10;;
68256;SDS011;55069;51.568;4.656;2022-10-16T06:17:17;2.33;;;1.55;;
68256;SDS011;55069;51.568;4.656;2022-10-16T06:19:43;10.07;;;1.90;;
68256;SDS011;55069;51.568;4.656;2022-10-16T06:22:09;8.87;;;1.60;;
68256;SDS011;55069;51.568;4.656;2022-10-16T06:24:34;6.93;;;1.63;;
68256;SDS011;55069;51.568;4.656;2022-10-16T06:27:00;6.75;;;1.75;;
68256;SDS011;55069;51.568;4.656;2022-10-16T06:29:25;4.50;;;1.70;;
68256;SDS011;55069;51.568;4.656;2022-10-16T06:31:51;4.57;;;1.42;;
68256;SDS011;55069;51.568;4.656;2022-10-16T06:34:18;5.40;;;1.50;;
68256;SDS011;55069;51.568;4.656;2022-10-16T06:36:43;6.53;;;1.70;;
68256;SDS011;55069;51.568;4.656;2022-10-16T06:39:09;5.27;;;1.90;;
68256;SDS011;55069;51.568;4.656;2022-10-16T06:41:34;4.47;;;2.13;;
68256;SDS011;55069;51.568;4.656;2022-10-16T06:44:13;3.70;;;1.55;;
68256;SDS011;55069;51.568;4.656;2022-10-16T06:46:39;4.72;;;1.80;;
68256;SDS011;55069;51.568;4.656;2022-10-16T06:49:04;8.33;;;2.00;;
68256;SDS011;55069;51.568;4.656;2022-10-16T06:51:30;2.73;;;1.50;;
68256;SDS011;55069;51.568;4.656;2022-10-16T06:53:57;4.22;;;1.48;;
68256;SDS011;55069;51.568;4.656;2022-10-16T06:56:23;5.25;;;1.90;;
68256;SDS011;55069;51.568;4.656;2022-10-16T06:58:51;4.47;;;1.50;;
68256;SDS011;55069;51.568;4.656;2022-10-16T07:01:17;5.18;;;1.70;;
68256;SDS011;55069;51.568;4.656;2022-10-16T07:03:45;7.00;;;1.60;;
68256;SDS011;55069;51.568;4.656;2022-10-16T07:06:12;4.70;;;1.38;;
68256;SDS011;55069;51.568;4.656;2022-10-16T07:08:40;6.50;;;1.48;;
68256;SDS011;55069;51.568;4.656;2022-10-16T07:11:08;5.27;;;1.50;;
68256;SDS011;55069;51.568;4.656;2022-10-16T07:13:37;9.23;;;1.77;;
68256;SDS011;55069;51.568;4.656;2022-10-16T07:16:04;5.65;;;1.35;;
68256;SDS011;55069;51.568;4.656;2022-10-16T07:18:31;6.07;;;1.58;;
68256;SDS011;55069;51.568;4.656;2022-10-16T07:21:04;5.65;;;1.70;;
68256;SDS011;55069;51.568;4.656;2022-10-16T07:23:30;9.70;;;1.70;;
68256;SDS011;55069;51.568;4.656;2022-10-16T07:25:55;9.38;;;1.92;;
68256;SDS011;55069;51.568;4.656;2022-10-16T07:28:21;7.60;;;2.17;;
68256;SDS011;55069;51.568;4.656;2022-10-16T07:30:47;3.90;;;1.60;;
68256;SDS011;55069;51.568;4.656;2022-10-16T07:33:13;8.50;;;1.77;;
68256;SDS011;55069;51.568;4.656;2022-10-16T07:35:46;14.10;;;2.75;;
68256;SDS011;55069;51.568;4.656;2022-10-16T07:38:16;6.63;;;1.77;;
68256;SDS011;55069;51.568;4.656;2022-10-16T07:40:42;5.10;;;1.75;;
68256;SDS011;55069;51.568;4.656;2022-10-16T07:43:08;6.30;;;2.10;;
68256;SDS011;55069;51.568;4.656;2022-10-16T07:45:33;8.10;;;2.10;;
68256;SDS011;55069;51.568;4.656;2022-10-16T07:47:59;8.20;;;2.23;;
68256;SDS011;55069;51.568;4.656;2022-10-16T07:50:24;8.50;;;1.90;;
68256;SDS011;55069;51.568;4.656;2022-10-16T07:52:50;6.87;;;2.10;;
68256;SDS011;55069;51.568;4.656;2022-10-16T07:55:16;8.93;;;1.70;;
68256;SDS011;55069;51.568;4.656;2022-10-16T07:57:41;8.70;;;2.05;;
68256;SDS011;55069;51.568;4.656;2022-10-16T08:00:08;10.87;;;1.97;;
68256;SDS011;55069;51.568;4.656;2022-10-16T08:02:41;7.60;;;2.05;;
68256;SDS011;55069;51.568;4.656;2022-10-16T08:05:07;7.00;;;1.95;;
68256;SDS011;55069;51.568;4.656;2022-10-16T08:07:33;10.10;;;2.10;;
68256;SDS011;55069;51.568;4.656;2022-10-16T08:09:58;6.73;;;1.90;;
68256;SDS011;55069;51.568;4.656;2022-10-16T08:12:24;3.75;;;1.45;;
68256;SDS011;55069;51.568;4.656;2022-10-16T08:14:51;5.93;;;1.50;;
68256;SDS011;55069;51.568;4.656;2022-10-16T08:17:16;5.88;;;1.70;;
68256;SDS011;55069;51.568;4.656;2022-10-16T08:19:45;4.57;;;1.33;;
68256;SDS011;55069;51.568;4.656;2022-10-16T08:22:12;8.77;;;1.45;;
68256;SDS011;55069;51.568;4.656;2022-10-16T08:24:38;3.93;;;1.30;;
68256;SDS011;55069;51.568;4.656;2022-10-16T08:27:05;9.85;;;1.55;;
68256;SDS011;55069;51.568;4.656;2022-10-16T08:29:31;9.07;;;1.98;;
68256;SDS011;55069;51.568;4.656;2022-10-16T08:31:57;5.65;;;1.67;;
68256;SDS011;55069;51.568;4.656;2022-10-16T08:34:23;5.07;;;1.57;;
68256;SDS011;55069;51.568;4.656;2022-10-16T08:36:48;9.53;;;2.13;;
68256;SDS011;55069;51.568;4.656;2022-10-16T08:39:15;7.97;;;1.77;;
68256;SDS011;55069;51.568;4.656;2022-10-16T08:44:27;9.77;;;1.33;;
68256;SDS011;55069;51.568;4.656;2022-10-16T08:49:41;11.70;;;1.55;;
68256;SDS011;55069;51.568;4.656;2022-10-16T08:52:16;9.38;;;1.60;;
68256;SDS011;55069;51.568;4.656;2022-10-16T08:54:43;5.77;;;1.73;;
68256;SDS011;55069;51.568;4.656;2022-10-16T08:57:22;8.10;;;1.52;;
68256;SDS011;55069;51.568;4.656;2022-10-16T08:59:49;9.13;;;1.67;;
68256;SDS011;55069;51.568;4.656;2022-10-16T09:04:52;5.28;;;1.30;;
68256;SDS011;55069;51.568;4.656;2022-10-16T09:07:46;13.40;;;1.98;;
68256;SDS011;55069;51.568;4.656;2022-10-16T09:12:53;9.73;;;1.53;;
68256;SDS011;55069;51.568;4.656;2022-10-16T09:15:39;10.75;;;1.55;;
68256;SDS011;55069;51.568;4.656;2022-10-16T09:23:27;11.52;;;1.58;;
68256;SDS011;55069;51.568;4.656;2022-10-16T09:25:55;11.63;;;1.83;;
68256;SDS011;55069;51.568;4.656;2022-10-16T09:28:21;11.70;;;1.45;;
68256;SDS011;55069;51.568;4.656;2022-10-16T09:30:47;9.57;;;1.53;;
68256;SDS011;55069;51.568;4.656;2022-10-16T09:33:17;15.93;;;1.80;;
68256;SDS011;55069;51.568;4.656;2022-10-16T09:35:45;9.27;;;1.63;;
68256;SDS011;55069;51.568;4.656;2022-10-16T09:38:27;17.02;;;1.90;;
68256;SDS011;55069;51.568;4.656;2022-10-16T09:40:54;13.93;;;2.30;;
68256;SDS011;55069;51.568;4.656;2022-10-16T09:46:04;15.52;;;2.20;;
68256;SDS011;55069;51.568;4.656;2022-10-16T09:48:50;11.05;;;1.80;;
68256;SDS011;55069;51.568;4.656;2022-10-16T09:51:25;14.25;;;1.88;;
68256;SDS011;55069;51.568;4.656;2022-10-16T09:53:54;8.60;;;1.50;;
68256;SDS011;55069;51.568;4.656;2022-10-16T09:56:29;11.80;;;1.77;;
68256;SDS011;55069;51.568;4.656;2022-10-16T09:58:58;14.15;;;1.70;;
68256;SDS011;55069;51.568;4.656;2022-10-16T10:01:50;22.23;;;2.20;;
68256;SDS011;55069;51.568;4.656;2022-10-16T10:04:17;12.00;;;1.40;;
68256;SDS011;55069;51.568;4.656;2022-10-16T10:06:48;15.77;;;1.93;;
68256;SDS011;55069;51.568;4.656;2022-10-16T10:09:26;16.23;;;2.75;;
68256;SDS011;55069;51.568;4.656;2022-10-16T10:12:16;12.93;;;1.75;;
68256;SDS011;55069;51.568;4.656;2022-10-16T10:14:45;12.07;;;2.03;;
68256;SDS011;55069;51.568;4.656;2022-10-16T10:17:14;12.05;;;2.03;;
68256;SDS011;55069;51.568;4.656;2022-10-16T10:19:44;15.57;;;1.70;;
68256;SDS011;55069;51.568;4.656;2022-10-16T10:22:58;15.95;;;1.73;;
68256;SDS011;55069;51.568;4.656;2022-10-16T10:27:43;13.02;;;1.70;;
68256;SDS011;55069;51.568;4.656;2022-10-16T10:33:17;19.63;;;1.63;;
68256;SDS011;55069;51.568;4.656;2022-10-16T10:35:56;14.65;;;1.60;;
68256;SDS011;55069;51.568;4.656;2022-10-16T10:46:47;12.73;;;1.77;;
68256;SDS011;55069;51.568;4.656;2022-10-16T10:52:34;13.68;;;1.80;;
68256;SDS011;55069;51.568;4.656;2022-10-16T11:01:26;12.40;;;1.57;;
68256;SDS011;55069;51.568;4.656;2022-10-16T11:06:48;11.52;;;2.10;;
68256;SDS011;55069;51.568;4.656;2022-10-16T11:09:20;12.68;;;2.15;;
68256;SDS011;55069;51.568;4.656;2022-10-16T11:11:51;15.02;;;2.17;;
68256;SDS011;55069;51.568;4.656;2022-10-16T11:14:23;7.83;;;1.73;;
68256;SDS011;55069;51.568;4.656;2022-10-16T11:16:54;16.88;;;1.98;;
68256;SDS011;55069;51.568;4.656;2022-10-16T11:27:17;13.20;;;1.30;;
68256;SDS011;55069;51.568;4.656;2022-10-16T11:29:58;15.32;;;2.00;;
68256;SDS011;55069;51.568;4.656;2022-10-16T11:32:34;12.45;;;1.63;;
68256;SDS011;55069;51.568;4.656;2022-10-16T11:35:11;12.80;;;1.73;;
68256;SDS011;55069;51.568;4.656;2022-10-16T11:37:44;8.93;;;1.55;;
68256;SDS011;55069;51.568;4.656;2022-10-16T11:42:56;12.52;;;2.08;;
68256;SDS011;55069;51.568;4.656;2022-10-16T11:45:36;12.95;;;2.10;;
68256;SDS011;55069;51.568;4.656;2022-10-16T11:50:55;12.20;;;1.70;;
68256;SDS011;55069;51.568;4.656;2022-10-16T11:53:38;25.37;;;3.00;;
68256;SDS011;55069;51.568;4.656;2022-10-16T11:56:08;13.50;;;1.70;;
68256;SDS011;55069;51.568;4.656;2022-10-16T11:58:49;13.02;;;1.83;;
68256;SDS011;55069;51.568;4.656;2022-10-16T12:01:22;17.02;;;2.22;;
68256;SDS011;55069;51.568;4.656;2022-10-16T12:06:47;14.63;;;1.83;;
68256;SDS011;55069;51.568;4.656;2022-10-16T12:09:31;13.63;;;2.22;;
68256;SDS011;55069;51.568;4.656;2022-10-16T12:11:59;14.05;;;1.95;;
68256;SDS011;55069;51.568;4.656;2022-10-16T12:19:45;15.57;;;1.73;;
68256;SDS011;55069;51.568;4.656;2022-10-16T12:22:22;14.82;;;2.22;;
68256;SDS011;55069;51.568;4.656;2022-10-16T12:24:50;14.00;;;1.85;;
68256;SDS011;55069;51.568;4.656;2022-10-16T12:27:20;13.27;;;1.90;;
68256;SDS011;55069;51.568;4.656;2022-10-16T12:29:48;14.32;;;1.75;;
68256;SDS011;55069;51.568;4.656;2022-10-16T12:32:28;14.63;;;1.48;;
68256;SDS011;55069;51.568;4.656;2022-10-16T12:34:56;13.82;;;1.65;;
68256;SDS011;55069;51.568;4.656;2022-10-16T12:37:24;11.88;;;1.90;;
68256;SDS011;55069;51.568;4.656;2022-10-16T12:39:53;18.48;;;2.22;;
68256;SDS011;55069;51.568;4.656;2022-10-16T12:42:30;16.60;;;2.35;;
68256;SDS011;55069;51.568;4.656;2022-10-16T12:44:58;13.00;;;2.45;;
68256;SDS011;55069;51.568;4.656;2022-10-16T12:49:56;13.55;;;1.95;;
68256;SDS011;55069;51.568;4.656;2022-10-16T12:55:00;12.32;;;2.00;;
68256;SDS011;55069;51.568;4.656;2022-10-16T13:08:48;11.30;;;2.22;;
68256;SDS011;55069;51.568;4.656;2022-10-16T13:30:25;9.50;;;1.48;;
68256;SDS011;55069;51.568;4.656;2022-10-16T13:33:36;10.83;;;1.97;;
68256;SDS011;55069;51.568;4.656;2022-10-16T13:35:50;12.27;;;1.83;;
68256;SDS011;55069;51.568;4.656;2022-10-16T13:38:19;9.38;;;1.70;;
68256;SDS011;55069;51.568;4.656;2022-10-16T13:43:16;11.70;;;2.30;;
68256;SDS011;55069;51.568;4.656;2022-10-16T13:45:52;11.83;;;1.77;;
68256;SDS011;55069;51.568;4.656;2022-10-16T13:48:21;9.52;;;1.50;;
68256;SDS011;55069;51.568;4.656;2022-10-16T13:50:57;11.07;;;2.05;;
68256;SDS011;55069;51.568;4.656;2022-10-16T13:53:35;9.17;;;1.73;;
68256;SDS011;55069;51.568;4.656;2022-10-16T13:56:05;7.53;;;1.52;;
68256;SDS011;55069;51.568;4.656;2022-10-16T13:58:32;11.48;;;2.28;;
68256;SDS011;55069;51.568;4.656;2022-10-16T14:00:59;10.90;;;1.80;;
68256;SDS011;55069;51.568;4.656;2022-10-16T14:03:27;10.75;;;1.80;;
68256;SDS011;55069;51.568;4.656;2022-10-16T14:05:55;7.60;;;1.20;;
68256;SDS011;55069;51.568;4.656;2022-10-16T14:08:24;10.40;;;1.42;;
68256;SDS011;55069;51.568;4.656;2022-10-16T14:10:53;11.15;;;1.70;;
68256;SDS011;55069;51.568;4.656;2022-10-16T14:13:22;9.90;;;2.10;;
68256;SDS011;55069;51.568;4.656;2022-10-16T14:15:54;11.57;;;1.77;;
68256;SDS011;55069;51.568;4.656;2022-10-16T14:18:22;9.73;;;1.57;;
68256;SDS011;55069;51.568;4.656;2022-10-16T14:20:51;9.52;;;1.55;;
68256;SDS011;55069;51.568;4.656;2022-10-16T14:23:38;12.13;;;1.83;;
68256;SDS011;55069;51.568;4.656;2022-10-16T14:28:35;8.80;;;1.75;;
68256;SDS011;55069;51.568;4.656;2022-10-16T14:31:40;8.70;;;1.30;;
68256;SDS011;55069;51.568;4.656;2022-10-16T14:34:00;8.45;;;2.00;;
68256;SDS011;55069;51.568;4.656;2022-10-16T14:36:27;6.00;;;1.40;;
68256;SDS011;55069;51.568;4.656;2022-10-16T14:38:58;7.15;;;1.52;;
68256;SDS011;55069;51.568;4.656;2022-10-16T14:41:25;7.88;;;1.70;;
68256;SDS011;55069;51.568;4.656;2022-10-16T14:43:52;12.93;;;1.40;;
68256;SDS011;55069;51.568;4.656;2022-10-16T14:46:21;4.63;;;1.10;;
68256;SDS011;55069;51.568;4.656;2022-10-16T14:48:56;11.10;;;1.52;;
68256;SDS011;55069;51.568;4.656;2022-10-16T14:51:40;8.30;;;1.27;;
68256;SDS011;55069;51.568;4.656;2022-10-16T14:54:09;7.63;;;1.27;;
68256;SDS011;55069;51.568;4.656;2022-10-16T14:56:51;6.80;;;1.40;;
68256;SDS011;55069;51.568;4.656;2022-10-16T14:59:29;10.27;;;1.80;;
68256;SDS011;55069;51.568;4.656;2022-10-16T15:01:57;10.50;;;1.40;;
68256;SDS011;55069;51.568;4.656;2022-10-16T15:04:23;6.30;;;1.20;;
68256;SDS011;55069;51.568;4.656;2022-10-16T15:06:48;6.13;;;1.30;;
68256;SDS011;55069;51.568;4.656;2022-10-16T15:09:14;9.07;;;1.73;;
68256;SDS011;55069;51.568;4.656;2022-10-16T15:11:41;8.57;;;1.67;;
68256;SDS011;55069;51.568;4.656;2022-10-16T15:14:08;6.53;;;1.20;;
68256;SDS011;55069;51.568;4.656;2022-10-16T15:16:38;7.95;;;1.30;;
68256;SDS011;55069;51.568;4.656;2022-10-16T15:19:03;3.67;;;1.17;;
68256;SDS011;55069;51.568;4.656;2022-10-16T15:21:30;7.50;;;1.23;;
68256;SDS011;55069;51.568;4.656;2022-10-16T15:23:57;10.40;;;1.30;;
68256;SDS011;55069;51.568;4.656;2022-10-16T15:26:25;7.18;;;1.05;;
68256;SDS011;55069;51.568;4.656;2022-10-16T15:28:51;5.35;;;1.67;;
68256;SDS011;55069;51.568;4.656;2022-10-16T15:31:17;9.83;;;1.47;;
68256;SDS011;55069;51.568;4.656;2022-10-16T15:33:43;8.82;;;1.80;;
68256;SDS011;55069;51.568;4.656;2022-10-16T15:36:12;6.47;;;1.70;;
68256;SDS011;55069;51.568;4.656;2022-10-16T15:38:38;6.37;;;1.67;;
68256;SDS011;55069;51.568;4.656;2022-10-16T15:41:04;7.47;;;1.23;;
68256;SDS011;55069;51.568;4.656;2022-10-16T15:43:29;6.00;;;1.50;;
68256;SDS011;55069;51.568;4.656;2022-10-16T15:45:59;4.93;;;1.30;;
68256;SDS011;55069;51.568;4.656;2022-10-16T15:48:26;5.18;;;1.10;;
68256;SDS011;55069;51.568;4.656;2022-10-16T15:50:53;5.60;;;1.60;;
68256;SDS011;55069;51.568;4.656;2022-10-16T15:53:18;6.13;;;1.60;;
68256;SDS011;55069;51.568;4.656;2022-10-16T15:55:44;4.43;;;1.48;;
68256;SDS011;55069;51.568;4.656;2022-10-16T15:58:10;5.40;;;1.33;;
68256;SDS011;55069;51.568;4.656;2022-10-16T16:00:35;4.53;;;1.17;;
68256;SDS011;55069;51.568;4.656;2022-10-16T16:03:01;4.33;;;0.77;;
68256;SDS011;55069;51.568;4.656;2022-10-16T16:05:26;7.60;;;1.42;;
68256;SDS011;55069;51.568;4.656;2022-10-16T16:07:52;5.10;;;1.50;;
68256;SDS011;55069;51.568;4.656;2022-10-16T16:10:18;7.50;;;1.60;;
68256;SDS011;55069;51.568;4.656;2022-10-16T16:12:46;10.98;;;1.38;;
68256;SDS011;55069;51.568;4.656;2022-10-16T16:15:16;6.17;;;1.13;;
68256;SDS011;55069;51.568;4.656;2022-10-16T16:17:42;7.57;;;1.10;;
68256;SDS011;55069;51.568;4.656;2022-10-16T16:20:09;5.38;;;1.30;;
68256;SDS011;55069;51.568;4.656;2022-10-16T16:22:35;7.85;;;1.42;;
68256;SDS011;55069;51.568;4.656;2022-10-16T16:25:00;4.90;;;1.40;;
68256;SDS011;55069;51.568;4.656;2022-10-16T16:27:26;6.27;;;1.00;;
68256;SDS011;55069;51.568;4.656;2022-10-16T16:29:53;9.23;;;1.20;;
68256;SDS011;55069;51.568;4.656;2022-10-16T16:32:20;5.47;;;1.15;;
68256;SDS011;55069;51.568;4.656;2022-10-16T16:34:46;5.93;;;1.27;;
68256;SDS011;55069;51.568;4.656;2022-10-16T16:37:11;5.05;;;1.25;;
68256;SDS011;55069;51.568;4.656;2022-10-16T16:39:37;7.70;;;1.10;;
68256;SDS011;55069;51.568;4.656;2022-10-16T16:42:02;8.30;;;1.33;;
68256;SDS011;55069;51.568;4.656;2022-10-16T16:44:29;9.07;;;1.87;;
68256;SDS011;55069;51.568;4.656;2022-10-16T16:46:54;5.43;;;1.23;;
68256;SDS011;55069;51.568;4.656;2022-10-16T16:49:20;5.53;;;1.60;;
68256;SDS011;55069;51.568;4.656;2022-10-16T16:51:46;4.75;;;1.50;;
68256;SDS011;55069;51.568;4.656;2022-10-16T16:54:11;8.83;;;1.30;;
68256;SDS011;55069;51.568;4.656;2022-10-16T16:56:39;6.35;;;1.70;;
68256;SDS011;55069;51.568;4.656;2022-10-16T16:59:10;7.22;;;1.92;;
68256;SDS011;55069;51.568;4.656;2022-10-16T17:01:38;5.68;;;1.85;;
68256;SDS011;55069;51.568;4.656;2022-10-16T17:04:03;9.83;;;1.97;;
68256;SDS011;55069;51.568;4.656;2022-10-16T17:06:30;7.72;;;2.13;;